Shirley, Maine
Current Conditions -  °F | °C
As of 10:53 AM on Friday 21 Nov 2014 (Local Time) from KMLT Reporting Station
Overcast Overcast  
Wind Chill: 16°   Ceiling: 3000
Heat Index: 26°   Visibility: 9mi
Dew Point: 15°   Wind: 12mph
Humidity: 63%   Direction: 290°WNW
Pressure: 29.9"   Gusts: 18mph
Location:  45.3646°N, 69.6212°W
Report Text: KMLT 211553Z AUTO 29010G16KT 9SM BKN030 OVC036 M03/M09 A2990 RMK AO2 SNE49 SLP134 P0000 T10331094
Loading
Personal Weather Stations






























Interactive Weather Map New forecast layout! Learn more

10-Day Weather Forecast

Advertisements
Track Severe Weather on mobile